sensor_id;sensor_type;location;lat;lon;timestamp;temperature;humidity
10155;DHT22;5118;48.570;7.916;2023-02-26T00:02:20;-0.60;99.90
10155;DHT22;5118;48.570;7.916;2023-02-26T00:04:48;-0.60;99.90
10155;DHT22;5118;48.570;7.916;2023-02-26T00:07:16;-0.60;99.90
10155;DHT22;5118;48.570;7.916;2023-02-26T00:09:45;-0.50;99.90
10155;DHT22;5118;48.570;7.916;2023-02-26T00:12:13;-0.60;99.90
10155;DHT22;5118;48.570;7.916;2023-02-26T00:14:42;-0.60;99.90
10155;DHT22;5118;48.570;7.916;2023-02-26T00:17:31;-0.60;99.90
10155;DHT22;5118;48.570;7.916;2023-02-26T00:20:01;-0.70;99.90
10155;DHT22;5118;48.570;7.916;2023-02-26T00:22:30;-0.70;99.90
10155;DHT22;5118;48.570;7.916;2023-02-26T00:24:59;-0.70;99.90
10155;DHT22;5118;48.570;7.916;2023-02-26T00:27:27;-0.80;99.90
10155;DHT22;5118;48.570;7.916;2023-02-26T00:29:56;-0.80;99.90
10155;DHT22;5118;48.570;7.916;2023-02-26T00:32:26;-0.80;99.90
10155;DHT22;5118;48.570;7.916;2023-02-26T00:34:58;-0.70;99.90
10155;DHT22;5118;48.570;7.916;2023-02-26T00:37:34;-0.70;99.90
10155;DHT22;5118;48.570;7.916;2023-02-26T00:40:16;-0.60;99.90
10155;DHT22;5118;48.570;7.916;2023-02-26T00:42:47;-0.50;99.90
10155;DHT22;5118;48.570;7.916;2023-02-26T00:45:16;-0.50;99.90
10155;DHT22;5118;48.570;7.916;2023-02-26T00:47:50;-0.40;99.90
10155;DHT22;5118;48.570;7.916;2023-02-26T00:50:21;-0.50;99.90
10155;DHT22;5118;48.570;7.916;2023-02-26T00:53:00;-0.40;99.90
10155;DHT22;5118;48.570;7.916;2023-02-26T00:55:30;-0.30;99.90
10155;DHT22;5118;48.570;7.916;2023-02-26T00:57:58;-0.30;99.90
10155;DHT22;5118;48.570;7.916;2023-02-26T01:00:26;-0.20;99.90
10155;DHT22;5118;48.570;7.916;2023-02-26T01:02:57;-0.20;99.90
10155;DHT22;5118;48.570;7.916;2023-02-26T01:05:26;-0.20;99.90
10155;DHT22;5118;48.570;7.916;2023-02-26T01:08:01;-0.30;99.90
10155;DHT22;5118;48.570;7.916;2023-02-26T01:10:33;-0.30;99.90
10155;DHT22;5118;48.570;7.916;2023-02-26T01:13:02;-0.30;99.90
10155;DHT22;5118;48.570;7.916;2023-02-26T01:15:31;-0.30;99.90
10155;DHT22;5118;48.570;7.916;2023-02-26T01:18:04;-0.30;99.90
10155;DHT22;5118;48.570;7.916;2023-02-26T01:20:41;-0.40;99.90
10155;DHT22;5118;48.570;7.916;2023-02-26T01:23:15;-0.40;99.90
10155;DHT22;5118;48.570;7.916;2023-02-26T01:25:48;-0.50;99.90
10155;DHT22;5118;48.570;7.916;2023-02-26T01:28:18;-0.50;99.90
10155;DHT22;5118;48.570;7.916;2023-02-26T01:30:47;-0.60;99.90
10155;DHT22;5118;48.570;7.916;2023-02-26T01:33:23;-0.60;99.90
10155;DHT22;5118;48.570;7.916;2023-02-26T01:35:55;-0.70;99.90
10155;DHT22;5118;48.570;7.916;2023-02-26T01:38:31;-0.80;99.90
10155;DHT22;5118;48.570;7.916;2023-02-26T01:41:16;-0.80;99.90
10155;DHT22;5118;48.570;7.916;2023-02-26T01:43:56;-0.80;99.90
10155;DHT22;5118;48.570;7.916;2023-02-26T01:46:32;-0.90;99.90
10155;DHT22;5118;48.570;7.916;2023-02-26T01:49:03;-0.90;99.90
10155;DHT22;5118;48.570;7.916;2023-02-26T01:51:42;-0.90;99.90
10155;DHT22;5118;48.570;7.916;2023-02-26T01:54:11;-1.00;99.90
10155;DHT22;5118;48.570;7.916;2023-02-26T01:56:40;-1.00;99.90
10155;DHT22;5118;48.570;7.916;2023-02-26T01:59:12;-1.00;99.90
10155;DHT22;5118;48.570;7.916;2023-02-26T02:01:41;-1.00;99.90
10155;DHT22;5118;48.570;7.916;2023-02-26T02:04:13;-0.90;99.90
10155;DHT22;5118;48.570;7.916;2023-02-26T02:06:43;-0.90;99.90
10155;DHT22;5118;48.570;7.916;2023-02-26T02:09:12;-1.00;99.90
10155;DHT22;5118;48.570;7.916;2023-02-26T02:11:49;-1.00;99.90
10155;DHT22;5118;48.570;7.916;2023-02-26T02:14:24;-1.00;99.90
10155;DHT22;5118;48.570;7.916;2023-02-26T02:17:01;-1.10;99.90
10155;DHT22;5118;48.570;7.916;2023-02-26T02:19:53;-1.10;99.90
10155;DHT22;5118;48.570;7.916;2023-02-26T02:22:39;-1.10;99.90
10155;DHT22;5118;48.570;7.916;2023-02-26T02:25:33;-1.20;99.90
10155;DHT22;5118;48.570;7.916;2023-02-26T02:28:07;-1.20;99.90
10155;DHT22;5118;48.570;7.916;2023-02-26T02:30:55;-1.30;99.90
10155;DHT22;5118;48.570;7.916;2023-02-26T02:33:29;-1.30;99.90
10155;DHT22;5118;48.570;7.916;2023-02-26T02:36:02;-1.30;99.90
10155;DHT22;5118;48.570;7.916;2023-02-26T02:38:34;-1.30;99.90
10155;DHT22;5118;48.570;7.916;2023-02-26T02:41:08;-1.30;99.90
10155;DHT22;5118;48.570;7.916;2023-02-26T02:43:38;-1.30;99.90
10155;DHT22;5118;48.570;7.916;2023-02-26T02:46:13;-1.30;99.90
10155;DHT22;5118;48.570;7.916;2023-02-26T02:48:46;-1.30;99.90
10155;DHT22;5118;48.570;7.916;2023-02-26T02:51:20;-1.30;99.90
10155;DHT22;5118;48.570;7.916;2023-02-26T02:53:53;-1.30;99.90
10155;DHT22;5118;48.570;7.916;2023-02-26T02:56:26;-1.30;99.90
10155;DHT22;5118;48.570;7.916;2023-02-26T02:59:00;-1.40;99.90
10155;DHT22;5118;48.570;7.916;2023-02-26T03:01:32;-1.40;99.90
10155;DHT22;5118;48.570;7.916;2023-02-26T03:04:06;-1.40;99.90
10155;DHT22;5118;48.570;7.916;2023-02-26T03:06:36;-1.50;99.90
10155;DHT22;5118;48.570;7.916;2023-02-26T03:09:07;-1.50;99.90
10155;DHT22;5118;48.570;7.916;2023-02-26T03:11:40;-1.50;99.90
10155;DHT22;5118;48.570;7.916;2023-02-26T03:14:10;-1.50;99.90
10155;DHT22;5118;48.570;7.916;2023-02-26T03:17:06;-1.50;99.90
10155;DHT22;5118;48.570;7.916;2023-02-26T03:19:43;-1.50;99.90
10155;DHT22;5118;48.570;7.916;2023-02-26T03:22:17;-1.50;99.90
10155;DHT22;5118;48.570;7.916;2023-02-26T03:24:58;-1.50;99.90
10155;DHT22;5118;48.570;7.916;2023-02-26T03:27:34;-1.50;99.90
10155;DHT22;5118;48.570;7.916;2023-02-26T03:30:08;-1.60;99.90
10155;DHT22;5118;48.570;7.916;2023-02-26T03:32:52;-1.60;99.90
10155;DHT22;5118;48.570;7.916;2023-02-26T03:35:28;-1.60;99.90
10155;DHT22;5118;48.570;7.916;2023-02-26T03:38:00;-1.70;99.90
10155;DHT22;5118;48.570;7.916;2023-02-26T03:40:33;-1.70;99.90
10155;DHT22;5118;48.570;7.916;2023-02-26T03:43:07;-1.70;99.90
10155;DHT22;5118;48.570;7.916;2023-02-26T03:45:38;-1.70;99.90
10155;DHT22;5118;48.570;7.916;2023-02-26T03:48:16;-1.80;99.90
10155;DHT22;5118;48.570;7.916;2023-02-26T03:50:48;-1.80;99.90
10155;DHT22;5118;48.570;7.916;2023-02-26T03:53:29;-1.80;99.90
10155;DHT22;5118;48.570;7.916;2023-02-26T03:56:10;-1.80;99.90
10155;DHT22;5118;48.570;7.916;2023-02-26T03:58:52;-1.90;99.90
10155;DHT22;5118;48.570;7.916;2023-02-26T04:01:43;-1.90;99.90
10155;DHT22;5118;48.570;7.916;2023-02-26T04:04:19;-1.90;99.90
10155;DHT22;5118;48.570;7.916;2023-02-26T04:06:50;-1.90;99.90
10155;DHT22;5118;48.570;7.916;2023-02-26T04:09:20;-1.90;99.90
10155;DHT22;5118;48.570;7.916;2023-02-26T04:11:49;-1.90;99.90
10155;DHT22;5118;48.570;7.916;2023-02-26T04:14:18;-1.90;99.90
10155;DHT22;5118;48.570;7.916;2023-02-26T04:16:47;-1.90;99.90
10155;DHT22;5118;48.570;7.916;2023-02-26T04:19:17;-1.90;99.90
10155;DHT22;5118;48.570;7.916;2023-02-26T04:21:46;-1.90;99.90
10155;DHT22;5118;48.570;7.916;2023-02-26T04:24:15;-2.00;99.90
10155;DHT22;5118;48.570;7.916;2023-02-26T04:26:44;-2.00;99.90
10155;DHT22;5118;48.570;7.916;2023-02-26T04:29:13;-2.00;99.90
10155;DHT22;5118;48.570;7.916;2023-02-26T04:31:42;-2.10;99.90
10155;DHT22;5118;48.570;7.916;2023-02-26T04:34:11;-2.10;99.90
10155;DHT22;5118;48.570;7.916;2023-02-26T04:36:41;-2.20;99.90
10155;DHT22;5118;48.570;7.916;2023-02-26T04:39:10;-2.20;99.90
10155;DHT22;5118;48.570;7.916;2023-02-26T04:41:39;-2.20;99.90
10155;DHT22;5118;48.570;7.916;2023-02-26T04:44:08;-2.30;99.90
10155;DHT22;5118;48.570;7.916;2023-02-26T04:46:40;-2.30;99.90
10155;DHT22;5118;48.570;7.916;2023-02-26T04:49:09;-2.40;99.90
10155;DHT22;5118;48.570;7.916;2023-02-26T04:51:43;-2.40;99.90
10155;DHT22;5118;48.570;7.916;2023-02-26T04:54:14;-2.40;99.90
10155;DHT22;5118;48.570;7.916;2023-02-26T04:56:42;-2.40;99.90
10155;DHT22;5118;48.570;7.916;2023-02-26T04:59:10;-2.40;99.90
10155;DHT22;5118;48.570;7.916;2023-02-26T05:01:39;-2.40;99.90
10155;DHT22;5118;48.570;7.916;2023-02-26T05:04:08;-2.50;99.90
10155;DHT22;5118;48.570;7.916;2023-02-26T05:06:38;-2.50;99.90
10155;DHT22;5118;48.570;7.916;2023-02-26T05:09:07;-2.50;99.90
10155;DHT22;5118;48.570;7.916;2023-02-26T05:11:36;-2.40;99.90
10155;DHT22;5118;48.570;7.916;2023-02-26T05:14:06;-2.40;99.90
10155;DHT22;5118;48.570;7.916;2023-02-26T05:16:35;-2.40;99.90
10155;DHT22;5118;48.570;7.916;2023-02-26T05:19:03;-2.40;99.90
10155;DHT22;5118;48.570;7.916;2023-02-26T05:21:34;-2.40;99.90
10155;DHT22;5118;48.570;7.916;2023-02-26T05:24:03;-2.40;99.90
10155;DHT22;5118;48.570;7.916;2023-02-26T05:26:34;-2.30;99.90
10155;DHT22;5118;48.570;7.916;2023-02-26T05:29:02;-2.30;99.90
10155;DHT22;5118;48.570;7.916;2023-02-26T05:31:30;-2.30;99.90
10155;DHT22;5118;48.570;7.916;2023-02-26T05:33:59;-2.20;99.90
10155;DHT22;5118;48.570;7.916;2023-02-26T05:36:28;-2.30;99.90
10155;DHT22;5118;48.570;7.916;2023-02-26T05:38:56;-2.30;99.90
10155;DHT22;5118;48.570;7.916;2023-02-26T05:41:24;-2.30;99.90
10155;DHT22;5118;48.570;7.916;2023-02-26T05:43:54;-2.40;99.90
10155;DHT22;5118;48.570;7.916;2023-02-26T05:46:23;-2.40;99.90
10155;DHT22;5118;48.570;7.916;2023-02-26T05:48:53;-2.30;99.90
10155;DHT22;5118;48.570;7.916;2023-02-26T05:51:21;-2.30;99.90
10155;DHT22;5118;48.570;7.916;2023-02-26T05:53:49;-2.40;99.90
10155;DHT22;5118;48.570;7.916;2023-02-26T05:56:18;-2.40;99.90
10155;DHT22;5118;48.570;7.916;2023-02-26T05:58:46;-2.50;99.90
10155;DHT22;5118;48.570;7.916;2023-02-26T06:01:16;-2.50;99.90
10155;DHT22;5118;48.570;7.916;2023-02-26T06:03:45;-2.50;99.90
10155;DHT22;5118;48.570;7.916;2023-02-26T06:06:14;-2.50;99.90
10155;DHT22;5118;48.570;7.916;2023-02-26T06:08:44;-2.50;99.90
10155;DHT22;5118;48.570;7.916;2023-02-26T06:11:13;-2.50;99.90
10155;DHT22;5118;48.570;7.916;2023-02-26T06:13:41;-2.50;99.90
10155;DHT22;5118;48.570;7.916;2023-02-26T06:16:10;-2.50;99.90
10155;DHT22;5118;48.570;7.916;2023-02-26T06:18:40;-2.50;99.90
10155;DHT22;5118;48.570;7.916;2023-02-26T06:21:08;-2.50;99.90
10155;DHT22;5118;48.570;7.916;2023-02-26T06:23:37;-2.50;99.90
10155;DHT22;5118;48.570;7.916;2023-02-26T06:26:05;-2.50;99.90
10155;DHT22;5118;48.570;7.916;2023-02-26T06:28:34;-2.50;99.90
10155;DHT22;5118;48.570;7.916;2023-02-26T06:31:02;-2.50;99.90
10155;DHT22;5118;48.570;7.916;2023-02-26T06:33:31;-2.50;99.90
10155;DHT22;5118;48.570;7.916;2023-02-26T06:36:01;-2.40;99.90
10155;DHT22;5118;48.570;7.916;2023-02-26T06:38:29;-2.40;99.90
10155;DHT22;5118;48.570;7.916;2023-02-26T06:40:58;-2.30;99.90
10155;DHT22;5118;48.570;7.916;2023-02-26T06:43:28;-2.30;99.90
10155;DHT22;5118;48.570;7.916;2023-02-26T06:45:57;-2.30;99.90
10155;DHT22;5118;48.570;7.916;2023-02-26T06:48:26;-2.20;99.90
10155;DHT22;5118;48.570;7.916;2023-02-26T06:50:55;-2.20;99.90
10155;DHT22;5118;48.570;7.916;2023-02-26T06:53:26;-2.20;99.90
10155;DHT22;5118;48.570;7.916;2023-02-26T06:55:55;-2.20;99.90
10155;DHT22;5118;48.570;7.916;2023-02-26T06:58:24;-2.10;99.90
10155;DHT22;5118;48.570;7.916;2023-02-26T07:00:53;-2.10;99.90
10155;DHT22;5118;48.570;7.916;2023-02-26T07:03:22;-2.00;99.90
10155;DHT22;5118;48.570;7.916;2023-02-26T07:05:51;-2.00;99.90
10155;DHT22;5118;48.570;7.916;2023-02-26T07:08:20;-1.90;99.90
10155;DHT22;5118;48.570;7.916;2023-02-26T07:10:51;-1.80;99.90
10155;DHT22;5118;48.570;7.916;2023-02-26T07:13:19;-1.80;99.90
10155;DHT22;5118;48.570;7.916;2023-02-26T07:15:48;-1.70;99.90
10155;DHT22;5118;48.570;7.916;2023-02-26T07:18:16;-1.70;99.90
10155;DHT22;5118;48.570;7.916;2023-02-26T07:20:47;-1.70;99.90
10155;DHT22;5118;48.570;7.916;2023-02-26T07:23:15;-1.60;99.90
10155;DHT22;5118;48.570;7.916;2023-02-26T07:25:44;-1.60;99.90
10155;DHT22;5118;48.570;7.916;2023-02-26T07:28:14;-1.50;99.90
10155;DHT22;5118;48.570;7.916;2023-02-26T07:30:42;-1.40;99.90
10155;DHT22;5118;48.570;7.916;2023-02-26T07:33:11;-1.40;99.90
10155;DHT22;5118;48.570;7.916;2023-02-26T07:35:39;-1.30;99.90
10155;DHT22;5118;48.570;7.916;2023-02-26T07:38:08;-1.10;99.90
10155;DHT22;5118;48.570;7.916;2023-02-26T07:40:36;-1.00;99.90
10155;DHT22;5118;48.570;7.916;2023-02-26T07:43:04;-0.90;99.90
10155;DHT22;5118;48.570;7.916;2023-02-26T07:45:34;-0.80;99.90
10155;DHT22;5118;48.570;7.916;2023-02-26T07:48:03;-0.70;99.90
10155;DHT22;5118;48.570;7.916;2023-02-26T07:50:31;-0.60;99.90
10155;DHT22;5118;48.570;7.916;2023-02-26T07:52:59;-0.60;99.90
10155;DHT22;5118;48.570;7.916;2023-02-26T07:55:28;-0.50;99.90
10155;DHT22;5118;48.570;7.916;2023-02-26T07:57:57;-0.50;99.90
10155;DHT22;5118;48.570;7.916;2023-02-26T08:00:25;-0.40;99.90
10155;DHT22;5118;48.570;7.916;2023-02-26T08:02:55;-0.30;99.90
10155;DHT22;5118;48.570;7.916;2023-02-26T08:05:23;-0.20;99.90
10155;DHT22;5118;48.570;7.916;2023-02-26T08:07:54;-0.20;99.90
10155;DHT22;5118;48.570;7.916;2023-02-26T08:10:23;-0.10;99.90
10155;DHT22;5118;48.570;7.916;2023-02-26T08:12:53;0.00;99.90
10155;DHT22;5118;48.570;7.916;2023-02-26T08:15:22;0.00;99.90
10155;DHT22;5118;48.570;7.916;2023-02-26T08:17:51;0.10;99.90
10155;DHT22;5118;48.570;7.916;2023-02-26T08:20:21;0.20;99.90
10155;DHT22;5118;48.570;7.916;2023-02-26T08:22:49;0.30;99.90
10155;DHT22;5118;48.570;7.916;2023-02-26T08:25:18;0.40;99.90
10155;DHT22;5118;48.570;7.916;2023-02-26T08:27:46;0.40;99.90
10155;DHT22;5118;48.570;7.916;2023-02-26T08:30:15;0.50;99.90
10155;DHT22;5118;48.570;7.916;2023-02-26T08:32:43;0.60;99.90
10155;DHT22;5118;48.570;7.916;2023-02-26T08:35:12;0.60;99.90
10155;DHT22;5118;48.570;7.916;2023-02-26T08:37:42;0.60;99.90
10155;DHT22;5118;48.570;7.916;2023-02-26T08:40:12;0.60;99.90
10155;DHT22;5118;48.570;7.916;2023-02-26T08:42:41;0.70;99.90
10155;DHT22;5118;48.570;7.916;2023-02-26T08:45:10;0.70;99.90
10155;DHT22;5118;48.570;7.916;2023-02-26T08:47:39;0.70;99.90
10155;DHT22;5118;48.570;7.916;2023-02-26T08:50:23;0.80;99.90
10155;DHT22;5118;48.570;7.916;2023-02-26T08:52:53;0.80;99.90
10155;DHT22;5118;48.570;7.916;2023-02-26T08:55:22;0.80;99.90
10155;DHT22;5118;48.570;7.916;2023-02-26T08:57:50;0.80;99.90
10155;DHT22;5118;48.570;7.916;2023-02-26T09:00:19;0.90;99.90
10155;DHT22;5118;48.570;7.916;2023-02-26T09:02:48;0.90;99.90
10155;DHT22;5118;48.570;7.916;2023-02-26T09:05:17;1.00;99.90
10155;DHT22;5118;48.570;7.916;2023-02-26T09:07:45;1.10;99.90
10155;DHT22;5118;48.570;7.916;2023-02-26T09:10:16;1.10;99.90
10155;DHT22;5118;48.570;7.916;2023-02-26T09:12:44;1.20;99.90
10155;DHT22;5118;48.570;7.916;2023-02-26T09:15:14;1.20;99.90
10155;DHT22;5118;48.570;7.916;2023-02-26T09:17:42;1.30;99.90
10155;DHT22;5118;48.570;7.916;2023-02-26T09:20:11;1.40;99.90
10155;DHT22;5118;48.570;7.916;2023-02-26T09:22:40;1.50;99.90
10155;DHT22;5118;48.570;7.916;2023-02-26T09:25:09;1.60;99.90
10155;DHT22;5118;48.570;7.916;2023-02-26T09:27:39;1.70;99.90
10155;DHT22;5118;48.570;7.916;2023-02-26T09:30:09;1.70;99.90
10155;DHT22;5118;48.570;7.916;2023-02-26T09:32:37;1.80;99.90
10155;DHT22;5118;48.570;7.916;2023-02-26T09:35:08;1.90;99.90
10155;DHT22;5118;48.570;7.916;2023-02-26T09:37:37;1.90;99.90
10155;DHT22;5118;48.570;7.916;2023-02-26T09:40:09;2.00;99.90
10155;DHT22;5118;48.570;7.916;2023-02-26T09:43:00;2.10;99.90
10155;DHT22;5118;48.570;7.916;2023-02-26T09:45:32;2.10;99.90
10155;DHT22;5118;48.570;7.916;2023-02-26T09:48:04;2.20;99.90
10155;DHT22;5118;48.570;7.916;2023-02-26T09:50:39;2.30;99.90
10155;DHT22;5118;48.570;7.916;2023-02-26T09:53:15;2.40;99.90
10155;DHT22;5118;48.570;7.916;2023-02-26T09:55:47;2.50;99.90
10155;DHT22;5118;48.570;7.916;2023-02-26T09:58:23;2.60;99.90
10155;DHT22;5118;48.570;7.916;2023-02-26T10:00:59;2.70;99.90
10155;DHT22;5118;48.570;7.916;2023-02-26T10:03:33;2.80;99.90
10155;DHT22;5118;48.570;7.916;2023-02-26T10:06:17;2.90;99.90
10155;DHT22;5118;48.570;7.916;2023-02-26T10:09:01;3.00;99.90
10155;DHT22;5118;48.570;7.916;2023-02-26T10:11:35;3.10;99.90
10155;DHT22;5118;48.570;7.916;2023-02-26T10:14:11;3.20;99.90
10155;DHT22;5118;48.570;7.916;2023-02-26T10:16:45;3.30;99.90
10155;DHT22;5118;48.570;7.916;2023-02-26T10:19:18;3.40;99.90
10155;DHT22;5118;48.570;7.916;2023-02-26T10:21:50;3.50;99.90
10155;DHT22;5118;48.570;7.916;2023-02-26T10:24:23;3.70;99.90
10155;DHT22;5118;48.570;7.916;2023-02-26T10:26:56;3.90;99.90
10155;DHT22;5118;48.570;7.916;2023-02-26T10:29:36;4.20;99.90
10155;DHT22;5118;48.570;7.916;2023-02-26T10:32:20;4.40;99.90
10155;DHT22;5118;48.570;7.916;2023-02-26T10:34:54;4.50;99.90
10155;DHT22;5118;48.570;7.916;2023-02-26T10:37:32;4.70;99.90
10155;DHT22;5118;48.570;7.916;2023-02-26T10:40:10;4.90;99.90
10155;DHT22;5118;48.570;7.916;2023-02-26T10:42:43;4.90;99.90
10155;DHT22;5118;48.570;7.916;2023-02-26T10:45:27;4.90;99.90
10155;DHT22;5118;48.570;7.916;2023-02-26T10:48:07;5.00;99.90
10155;DHT22;5118;48.570;7.916;2023-02-26T10:50:40;5.00;99.90
10155;DHT22;5118;48.570;7.916;2023-02-26T10:53:11;5.20;99.90
10155;DHT22;5118;48.570;7.916;2023-02-26T10:55:46;5.30;99.90
10155;DHT22;5118;48.570;7.916;2023-02-26T10:58:20;5.40;99.90
10155;DHT22;5118;48.570;7.916;2023-02-26T11:00:52;5.40;99.90
10155;DHT22;5118;48.570;7.916;2023-02-26T11:03:29;5.30;99.90
10155;DHT22;5118;48.570;7.916;2023-02-26T11:05:58;5.30;99.90
10155;DHT22;5118;48.570;7.916;2023-02-26T11:08:31;5.20;99.90
10155;DHT22;5118;48.570;7.916;2023-02-26T11:11:02;5.10;99.90
10155;DHT22;5118;48.570;7.916;2023-02-26T11:13:35;5.00;99.90
10155;DHT22;5118;48.570;7.916;2023-02-26T11:16:10;5.10;99.90
10155;DHT22;5118;48.570;7.916;2023-02-26T11:18:43;5.00;99.90
10155;DHT22;5118;48.570;7.916;2023-02-26T11:21:17;5.00;99.90
10155;DHT22;5118;48.570;7.916;2023-02-26T11:23:46;4.90;99.90
10155;DHT22;5118;48.570;7.916;2023-02-26T11:26:19;4.70;99.90
10155;DHT22;5118;48.570;7.916;2023-02-26T11:28:54;4.50;99.90
10155;DHT22;5118;48.570;7.916;2023-02-26T11:31:25;4.40;99.90
10155;DHT22;5118;48.570;7.916;2023-02-26T11:33:59;4.30;99.90
10155;DHT22;5118;48.570;7.916;2023-02-26T11:36:30;4.20;99.90
10155;DHT22;5118;48.570;7.916;2023-02-26T11:39:02;4.10;99.90
10155;DHT22;5118;48.570;7.916;2023-02-26T11:41:36;4.20;99.90
10155;DHT22;5118;48.570;7.916;2023-02-26T11:44:07;4.20;99.90
10155;DHT22;5118;48.570;7.916;2023-02-26T11:46:42;4.20;99.90
10155;DHT22;5118;48.570;7.916;2023-02-26T11:49:14;4.40;99.90
10155;DHT22;5118;48.570;7.916;2023-02-26T11:51:45;4.90;99.90
10155;DHT22;5118;48.570;7.916;2023-02-26T11:54:21;5.50;99.90
10155;DHT22;5118;48.570;7.916;2023-02-26T11:56:49;6.10;99.90
10155;DHT22;5118;48.570;7.916;2023-02-26T11:59:20;6.50;99.90
10155;DHT22;5118;48.570;7.916;2023-02-26T12:01:51;7.00;99.90
10155;DHT22;5118;48.570;7.916;2023-02-26T12:04:21;7.40;99.90
10155;DHT22;5118;48.570;7.916;2023-02-26T12:06:54;7.80;99.90
10155;DHT22;5118;48.570;7.916;2023-02-26T12:09:24;8.20;99.90
10155;DHT22;5118;48.570;7.916;2023-02-26T12:15:21;7.90;98.70
10155;DHT22;5118;48.570;7.916;2023-02-26T12:18:11;7.70;99.40
10155;DHT22;5118;48.570;7.916;2023-02-26T12:20:49;7.50;98.50
10155;DHT22;5118;48.570;7.916;2023-02-26T12:23:38;7.30;99.10
10155;DHT22;5118;48.570;7.916;2023-02-26T12:26:21;7.10;98.70
10155;DHT22;5118;48.570;7.916;2023-02-26T12:29:09;7.00;98.50
10155;DHT22;5118;48.570;7.916;2023-02-26T12:31:50;6.70;97.70
10155;DHT22;5118;48.570;7.916;2023-02-26T12:34:38;6.50;98.10
10155;DHT22;5118;48.570;7.916;2023-02-26T12:37:26;6.30;97.70
10155;DHT22;5118;48.570;7.916;2023-02-26T12:40:04;6.00;98.30
10155;DHT22;5118;48.570;7.916;2023-02-26T12:42:46;5.80;99.00
10155;DHT22;5118;48.570;7.916;2023-02-26T12:45:30;5.70;99.40
10155;DHT22;5118;48.570;7.916;2023-02-26T12:48:25;5.60;99.50
10155;DHT22;5118;48.570;7.916;2023-02-26T12:51:03;5.50;99.70
10155;DHT22;5118;48.570;7.916;2023-02-26T12:53:53;5.50;99.90
10155;DHT22;5118;48.570;7.916;2023-02-26T12:56:40;5.40;99.90
10155;DHT22;5118;48.570;7.916;2023-02-26T13:02:32;5.50;99.90
10155;DHT22;5118;48.570;7.916;2023-02-26T13:05:18;5.60;99.90
10155;DHT22;5118;48.570;7.916;2023-02-26T13:08:07;5.60;99.90
10155;DHT22;5118;48.570;7.916;2023-02-26T13:10:48;5.50;99.90
10155;DHT22;5118;48.570;7.916;2023-02-26T13:16:34;5.20;99.90
10155;DHT22;5118;48.570;7.916;2023-02-26T13:19:13;5.00;99.90
10155;DHT22;5118;48.570;7.916;2023-02-26T13:21:48;4.90;99.90
10155;DHT22;5118;48.570;7.916;2023-02-26T13:24:23;4.80;99.90
10155;DHT22;5118;48.570;7.916;2023-02-26T13:26:52;4.80;99.90
10155;DHT22;5118;48.570;7.916;2023-02-26T13:29:24;4.90;99.90
10155;DHT22;5118;48.570;7.916;2023-02-26T13:31:57;5.10;99.90
10155;DHT22;5118;48.570;7.916;2023-02-26T13:34:35;5.40;99.90
10155;DHT22;5118;48.570;7.916;2023-02-26T13:37:19;5.60;99.90
10155;DHT22;5118;48.570;7.916;2023-02-26T13:40:00;5.70;99.90
10155;DHT22;5118;48.570;7.916;2023-02-26T13:42:36;5.50;99.90
10155;DHT22;5118;48.570;7.916;2023-02-26T13:45:21;5.30;99.90
10155;DHT22;5118;48.570;7.916;2023-02-26T13:48:08;5.00;99.90
10155;DHT22;5118;48.570;7.916;2023-02-26T13:50:47;4.70;99.90
10155;DHT22;5118;48.570;7.916;2023-02-26T13:59:24;4.20;99.90
10155;DHT22;5118;48.570;7.916;2023-02-26T14:01:55;4.20;99.90
10155;DHT22;5118;48.570;7.916;2023-02-26T14:04:25;4.20;99.90
10155;DHT22;5118;48.570;7.916;2023-02-26T14:06:57;4.20;99.90
10155;DHT22;5118;48.570;7.916;2023-02-26T14:09:35;4.20;99.90
10155;DHT22;5118;48.570;7.916;2023-02-26T14:12:34;4.30;99.90
10155;DHT22;5118;48.570;7.916;2023-02-26T14:15:39;4.40;99.90
10155;DHT22;5118;48.570;7.916;2023-02-26T14:18:32;4.50;99.90
10155;DHT22;5118;48.570;7.916;2023-02-26T14:21:30;4.60;99.90
10155;DHT22;5118;48.570;7.916;2023-02-26T14:24:04;4.80;99.90
10155;DHT22;5118;48.570;7.916;2023-02-26T14:26:36;5.10;99.90
10155;DHT22;5118;48.570;7.916;2023-02-26T14:29:14;5.30;99.90
10155;DHT22;5118;48.570;7.916;2023-02-26T14:32:11;5.40;99.90
10155;DHT22;5118;48.570;7.916;2023-02-26T14:34:49;5.50;99.90
10155;DHT22;5118;48.570;7.916;2023-02-26T14:37:23;5.90;99.90
10155;DHT22;5118;48.570;7.916;2023-02-26T14:39:55;6.20;99.90
10155;DHT22;5118;48.570;7.916;2023-02-26T14:42:32;6.60;99.90
10155;DHT22;5118;48.570;7.916;2023-02-26T14:45:12;6.90;99.90
10155;DHT22;5118;48.570;7.916;2023-02-26T14:47:46;6.90;99.90
10155;DHT22;5118;48.570;7.916;2023-02-26T14:50:16;6.70;99.90
10155;DHT22;5118;48.570;7.916;2023-02-26T14:56:06;6.20;99.90
10155;DHT22;5118;48.570;7.916;2023-02-26T14:58:59;5.90;99.90
10155;DHT22;5118;48.570;7.916;2023-02-26T15:01:44;5.60;99.90
10155;DHT22;5118;48.570;7.916;2023-02-26T15:07:19;5.20;99.90
10155;DHT22;5118;48.570;7.916;2023-02-26T15:10:02;5.20;99.90
10155;DHT22;5118;48.570;7.916;2023-02-26T15:12:44;5.40;99.90
10155;DHT22;5118;48.570;7.916;2023-02-26T15:15:26;5.60;99.90
10155;DHT22;5118;48.570;7.916;2023-02-26T15:18:14;6.00;99.90
10155;DHT22;5118;48.570;7.916;2023-02-26T15:20:50;6.40;99.90
10155;DHT22;5118;48.570;7.916;2023-02-26T15:23:32;7.20;99.90
10155;DHT22;5118;48.570;7.916;2023-02-26T15:26:04;7.80;99.90
10155;DHT22;5118;48.570;7.916;2023-02-26T15:28:35;7.80;99.90
10155;DHT22;5118;48.570;7.916;2023-02-26T15:31:07;7.70;99.90
10155;DHT22;5118;48.570;7.916;2023-02-26T15:33:41;8.10;99.90
10155;DHT22;5118;48.570;7.916;2023-02-26T15:36:15;8.90;99.90
10155;DHT22;5118;48.570;7.916;2023-02-26T15:38:46;9.10;98.00
10155;DHT22;5118;48.570;7.916;2023-02-26T15:41:15;8.90;97.20
10155;DHT22;5118;48.570;7.916;2023-02-26T15:43:48;8.60;97.80
10155;DHT22;5118;48.570;7.916;2023-02-26T15:46:19;8.60;98.10
10155;DHT22;5118;48.570;7.916;2023-02-26T15:48:54;8.60;98.30
10155;DHT22;5118;48.570;7.916;2023-02-26T15:51:24;8.60;97.90
10155;DHT22;5118;48.570;7.916;2023-02-26T15:53:52;8.50;98.00
10155;DHT22;5118;48.570;7.916;2023-02-26T15:56:23;8.40;98.00
10155;DHT22;5118;48.570;7.916;2023-02-26T15:58:55;8.00;98.00
10155;DHT22;5118;48.570;7.916;2023-02-26T16:01:28;7.50;98.20
10155;DHT22;5118;48.570;7.916;2023-02-26T16:04:00;7.00;98.30
10155;DHT22;5118;48.570;7.916;2023-02-26T16:06:33;6.50;98.30
10155;DHT22;5118;48.570;7.916;2023-02-26T16:09:04;6.10;98.50
10155;DHT22;5118;48.570;7.916;2023-02-26T16:11:35;5.80;98.60
10155;DHT22;5118;48.570;7.916;2023-02-26T16:14:05;5.70;98.60
10155;DHT22;5118;48.570;7.916;2023-02-26T16:16:39;5.50;98.70
10155;DHT22;5118;48.570;7.916;2023-02-26T16:19:12;5.50;98.70
10155;DHT22;5118;48.570;7.916;2023-02-26T16:21:42;5.50;98.80
10155;DHT22;5118;48.570;7.916;2023-02-26T16:24:14;5.60;98.50
10155;DHT22;5118;48.570;7.916;2023-02-26T16:26:48;5.60;98.10
10155;DHT22;5118;48.570;7.916;2023-02-26T16:29:20;5.40;97.80
10155;DHT22;5118;48.570;7.916;2023-02-26T16:31:53;5.30;97.90
10155;DHT22;5118;48.570;7.916;2023-02-26T16:34:29;5.10;97.70
10155;DHT22;5118;48.570;7.916;2023-02-26T16:36:58;4.90;97.60
10155;DHT22;5118;48.570;7.916;2023-02-26T16:39:43;4.70;97.70
10155;DHT22;5118;48.570;7.916;2023-02-26T16:42:19;4.40;97.80
10155;DHT22;5118;48.570;7.916;2023-02-26T16:44:49;4.30;97.90
10155;DHT22;5118;48.570;7.916;2023-02-26T16:47:19;4.10;98.00
10155;DHT22;5118;48.570;7.916;2023-02-26T16:49:52;3.90;98.00
10155;DHT22;5118;48.570;7.916;2023-02-26T16:52:23;3.80;97.90
10155;DHT22;5118;48.570;7.916;2023-02-26T16:54:59;3.60;97.90
10155;DHT22;5118;48.570;7.916;2023-02-26T16:57:34;3.40;97.90